
Distance (Route):
Temperature : -57.3°C
Humidity : 14.9%
Pressure : 190.8hPa| Receiver | Date | Latitude | Longitude | Direction | Speed | Altitude | Climb | Temperature | Humidity | Pressure | Voltage | Killtimer | Uptime | BKT | XDATA |
|---|---|---|---|---|---|---|---|---|---|---|---|---|---|---|---|
| LZ4TU-5 | 2026-09-01 12:59:58 | 46.28892 | 21.02612 | 89° | 148km/h | 12545m | -17.6m/s | -57.3°C | 14.9% | 190.8hPa | 2.6V | 00:00:00 | 00:00:00 | 00:00:00 | |
| LZ4TU-5 | 2026-09-01 12:59:52 | 46.28886 | 21.02345 | 89° | 144km/h | 12626m | -16.2m/s | -57.7°C | 13.4% | 188.4hPa | 2.6V | 00:00:00 | 00:00:00 | 00:00:00 | |
| S52SK | 2026-09-01 12:59:24 | 46.28873 | 21.00832 | 90° | 141km/h | 13073m | -14.8m/s | -56.8°C | 0% | 175.4hPa | 2.6V | 08:16:00 | 00:00:00 | 00:00:00 | |
| S52SK | 2026-09-01 12:59:18 | 46.28868 | 21.00523 | 90° | 141km/h | 13166m | -16.8m/s | -57.0°C | 0% | 172.9hPa | 2.6V | 00:00:00 | 00:00:00 | 00:00:00 | |
| S52SK | 2026-09-01 12:59:13 | 46.28866 | 21.00271 | 91° | 139km/h | 13247m | -17.5m/s | -57.1°C | 0% | 170.8hPa | 2.6V | 00:00:00 | 00:00:00 | 00:00:00 | |
| S52SK | 2026-09-01 12:59:07 | 46.28870 | 20.99976 | 93° | 135km/h | 13343m | -15.5m/s | -57.2°C | 0% | 168.2hPa | 2.6V | 00:00:00 | 00:00:00 | 00:00:00 | |
| S52SK | 2026-09-01 12:59:02 | 46.28879 | 20.99739 | 94° | 130km/h | 13415m | -14.8m/s | -57.0°C | 0% | 166.2hPa | 2.6V | 00:00:00 | 00:00:00 | 00:00:00 | |
| S52SK | 2026-09-01 12:58:57 | 46.28888 | 20.99458 | 95° | 122km/h | 13505m | -14.0m/s | -57.0°C | 0% | 163.9hPa | 2.6V | 00:00:00 | 00:00:00 | 00:00:00 | |
| S52SK | 2026-09-01 12:58:50 | 46.28903 | 20.99191 | 97° | 120km/h | 13591m | -14.7m/s | -56.6°C | 0% | 161.7hPa | 2.6V | 00:00:00 | 00:00:00 | 00:00:00 | |
| S52SK | 2026-09-01 12:58:34 | 46.28945 | 20.98517 | 96° | 111km/h | 13825m | -16.4m/s | -57.1°C | 0% | 155.8hPa | 2.6V | 00:00:00 | 00:00:00 | 00:00:00 | |
| S52SK | 2026-09-01 12:58:17 | 46.29001 | 20.97870 | 100° | 95km/h | 14076m | -14.2m/s | -57.5°C | 0% | 149.7hPa | 2.6V | 08:18:00 | 00:00:00 | 00:00:00 | |
| S52SK | 2026-09-01 12:58:11 | 46.29022 | 20.97669 | 98° | 88km/h | 14166m | -14.9m/s | -57.9°C | 0% | 147.6hPa | 2.6V | 08:18:00 | 00:00:00 | 00:00:00 | |
| S52SK | 2026-09-01 12:58:05 | 46.29032 | 20.97480 | 93° | 84km/h | 14257m | -14.6m/s | -57.4°C | 0% | 145.5hPa | 2.6V | 08:18:00 | 00:00:00 | 00:00:00 | |
| S52SK | 2026-09-01 12:57:53 | 46.29035 | 20.97067 | 92° | 91km/h | 14454m | -16.6m/s | -57.4°C | 0% | 141.1hPa | 2.6V | 08:18:00 | 00:00:00 | 00:00:00 | |
| S52SK | 2026-09-01 12:57:46 | 46.29036 | 20.96871 | 91° | 86km/h | 14549m | -16.0m/s | -57.5°C | 0% | 138.9hPa | 2.6V | 08:18:00 | 00:00:00 | 00:00:00 | |
| S52SK | 2026-09-01 12:57:41 | 46.29036 | 20.96714 | 92° | 88km/h | 14628m | -16.6m/s | -57.1°C | 0% | 137.1hPa | 2.6V | 00:00:00 | 00:00:00 | 00:00:00 | |
| S52SK | 2026-09-01 12:57:22 | 46.29021 | 20.96156 | 84° | 82km/h | 14935m | -16.6m/s | -56.6°C | 0% | 130.7hPa | 2.6V | 00:00:00 | 00:00:00 | 00:00:00 | |
| S52SK | 2026-09-01 12:57:17 | 46.29006 | 20.96006 | 82° | 82km/h | 15018m | -16.0m/s | -57.2°C | 0% | 129.0hPa | 2.6V | 00:00:00 | 00:00:00 | 00:00:00 | |
| S52SK | 2026-09-01 12:56:59 | 46.28963 | 20.95492 | 85° | 68km/h | 15310m | -16.2m/s | -57.3°C | 0% | 123.2hPa | 2.6V | 00:00:00 | 00:00:00 | 00:00:00 | |
| S52SK | 2026-09-01 12:56:42 | 46.28919 | 20.95039 | 87° | 80km/h | 15591m | -16.3m/s | -58.2°C | 0% | 117.9hPa | 2.6V | 00:00:00 | 00:00:00 | 00:00:00 | |
| S52SK | 2026-09-01 12:56:37 | 46.28918 | 20.94900 | 92° | 75km/h | 15672m | -16.5m/s | -58.1°C | 0% | 116.3hPa | 2.6V | 00:00:00 | 00:00:00 | 00:00:00 | |
| S52SK | 2026-09-01 12:56:31 | 46.28919 | 20.94730 | 92° | 75km/h | 15776m | -17.1m/s | -58.4°C | 0% | 114.5hPa | 2.6V | 00:00:00 | 00:00:00 | 00:00:00 | |
| S52SK | 2026-09-01 12:56:09 | 46.28862 | 20.94165 | 77° | 75km/h | 16146m | -17.3m/s | -57.1°C | 0% | 108.0hPa | 2.6V | 00:00:00 | 00:00:00 | 00:00:00 | |
| S52SK | 2026-09-01 12:56:03 | 46.28838 | 20.94001 | 82° | 75km/h | 16253m | -16.6m/s | -57.6°C | 0% | 106.2hPa | 2.6V | 00:00:00 | 00:00:00 | 00:00:00 | |
| PETON7-10 | 2026-09-01 12:55:43 | 46.28840 | 20.93543 | 84° | 40km/h | 16613m | -18.6m/s | -56.8°C | 4.4% | 100.2hPa | 2.6V | 00:00:00 | 00:00:00 | 00:00:00 | |
| S52SK | 2026-09-01 12:55:41 | 46.28838 | 20.93530 | 78° | 37km/h | 16630m | -16.7m/s | -56.9°C | 0% | 100.0hPa | 2.6V | 00:00:00 | 00:00:00 | 00:00:00 | |
| PETON7-10 | 2026-09-01 12:55:28 | 46.28755 | 20.93359 | 50° | 57km/h | 16867m | -19.7m/s | -56.0°C | 4.2% | 96.2hPa | 2.6V | 00:00:00 | 02:06:06 | 00:00:00 | |
| S52SK | 2026-09-01 12:55:19 | 46.28690 | 20.93226 | 63° | 57km/h | 17013m | -17.0m/s | -56.5°C | 0% | 94.1hPa | 2.6V | 00:00:00 | 00:00:00 | 00:00:00 | |
| PETON7-10 | 2026-09-01 12:55:13 | 46.28657 | 20.93086 | 80° | 44km/h | 17131m | -16.7m/s | 0°C | 0% | 0hPa | 2.6V | 00:00:00 | 00:00:00 | 00:00:00 | |
| PETON7-10 | 2026-09-01 12:54:58 | 46.28622 | 20.92857 | 63° | 42km/h | 17402m | -18.0m/s | 0°C | 0% | 0hPa | 2.6V | 00:00:00 | 00:00:00 | 00:00:00 | |
| 9A1FER-10 | 2026-09-01 12:54:57 | 46.28617 | 20.92843 | 62° | 42km/h | 17420m | -18.0m/s | -53.9°C | 3.7% | 88.2hPa | 2.6V | 08:21:00 | 02:05:35 | 00:00:00 | |
| S52SK | 2026-09-01 12:54:55 | 46.28612 | 20.92829 | 63° | 44km/h | 17438m | -18.3m/s | -54.0°C | 0% | 88.0hPa | 2.6V | 00:00:00 | 00:00:00 | 00:00:00 | |
| S52SK | 2026-09-01 12:54:49 | 46.28582 | 20.92744 | 69° | 42km/h | 17548m | -18.6m/s | -54.6°C | 0% | 86.6hPa | 2.6V | 00:00:00 | 00:00:00 | 00:00:00 | |
| LZ4TU-5 | 2026-09-01 12:54:46 | 46.28571 | 20.92700 | 74° | 40km/h | 17603m | -18.7m/s | -54.6°C | 1.2% | 85.9hPa | 2.6V | 00:00:00 | 00:00:00 | 00:00:00 | |
| PETON7-10 | 2026-09-01 12:54:43 | 46.28561 | 20.92642 | 80° | 27km/h | 17679m | -20.0m/s | 0°C | 0% | 0hPa | 2.6V | 00:00:00 | 02:05:21 | 00:00:00 | |
| 9A1FER-10 | 2026-09-01 12:54:42 | 46.28559 | 20.92629 | 79° | 22km/h | 17699m | -18.1m/s | -54.2°C | 3.9% | 84.5hPa | 2.6V | 00:00:00 | 02:05:20 | 00:00:00 | |
| LZ4TU-5 | 2026-09-01 12:54:41 | 46.28559 | 20.92629 | 80° | 35km/h | 17699m | -18.2m/s | -54.2°C | 0% | 84.6hPa | 2.6V | 00:00:00 | 00:00:00 | 00:00:00 | |
| S52SK | 2026-09-01 12:54:30 | 46.28554 | 20.92517 | 91° | 15km/h | 17912m | -19.1m/s | -53.8°C | 0% | 81.8hPa | 2.6V | 00:00:00 | 00:00:00 | 00:00:00 | |
| 9A1FER-10 | 2026-09-01 12:54:26 | 46.28552 | 20.92491 | 76° | 18km/h | 18008m | -19.6m/s | -53.2°C | 3.4% | 80.6hPa | 2.6V | 00:00:00 | 02:05:04 | 00:00:00 | |
| S52SK | 2026-09-01 12:54:25 | 46.28552 | 20.92491 | 77° | 15km/h | 18008m | -19.7m/s | -53.3°C | 0% | 80.6hPa | 2.6V | 00:00:00 | 00:00:00 | 00:00:00 | |
| S52SK | 2026-09-01 12:54:19 | 46.28542 | 20.92460 | 50° | 16km/h | 18128m | -18.3m/s | -54.2°C | 0% | 79.1hPa | 2.6V | 00:00:00 | 00:00:00 | 00:00:00 | |
| S52SK | 2026-09-01 12:54:13 | 46.28522 | 20.92427 | 55° | 24km/h | 18245m | -20.1m/s | -55.1°C | 0% | 77.7hPa | 2.6V | 00:00:00 | 00:00:00 | 00:00:00 | |
| 9A1FER-10 | 2026-09-01 12:54:11 | 46.28512 | 20.92406 | 55° | 22km/h | 18301m | -18.2m/s | -55.5°C | 3.9% | 76.9hPa | 2.6V | 00:00:00 | 02:04:49 | 00:00:00 | |
| S52SK | 2026-09-01 12:54:06 | 46.28502 | 20.92377 | 71° | 24km/h | 18374m | -19.5m/s | -55.8°C | 0% | 76.1hPa | 2.6V | 00:00:00 | 00:00:00 | 00:00:00 | |
| S52SK | 2026-09-01 12:54:00 | 46.28494 | 20.92326 | 90° | 18km/h | 18511m | -19.5m/s | -56.4°C | 0% | 74.5hPa | 2.6V | 00:00:00 | 00:00:00 | 00:00:00 | |
| 9A1FER-10 | 2026-09-01 12:53:56 | 46.28495 | 20.92295 | 101° | 20km/h | 18593m | -18.8m/s | -56.8°C | 4.5% | 73.5hPa | 2.6V | 00:00:00 | 02:04:34 | 00:00:00 | |
| S52SK | 2026-09-01 12:53:53 | 46.28497 | 20.92279 | 94° | 24km/h | 18631m | -19.5m/s | -56.8°C | 0% | 73.1hPa | 2.6V | 00:00:00 | 00:00:00 | 00:00:00 | |
| 9A1FER-10 | 2026-09-01 12:53:41 | 46.28495 | 20.92193 | 94° | 20km/h | 18878m | -18.3m/s | -55.4°C | 4.0% | 70.3hPa | 2.6V | 00:00:00 | 02:04:19 | 00:00:00 | |
| S52SK | 2026-09-01 12:53:39 | 46.28496 | 20.92188 | 92° | 13km/h | 18896m | -18.8m/s | -55.4°C | 0% | 70.1hPa | 2.6V | 00:00:00 | 00:00:00 | 00:00:00 | |
| S52SK | 2026-09-01 12:53:34 | 46.28490 | 20.92170 | 45° | 13km/h | 18994m | -20.6m/s | 0°C | 0% | 69.1hPa | 2.6V | 00:00:00 | 00:00:00 | 00:00:00 | |
| S52SK | 2026-09-01 12:53:29 | 46.28473 | 20.92160 | 11° | 18km/h | 19095m | -19.2m/s | 0°C | 0% | 68.0hPa | 2.6V | 00:00:00 | 00:00:00 | 00:00:00 | |
| S52SK | 2026-09-01 12:53:09 | 46.28368 | 20.92075 | 36° | 20km/h | 19520m | -21.6m/s | 0°C | 0% | 63.6hPa | 2.6V | 08:23:00 | 00:00:00 | 00:00:00 | |
| S52SK | 2026-09-01 12:53:04 | 46.28344 | 20.92044 | 45° | 29km/h | 19632m | -22.1m/s | 0°C | 0% | 62.5hPa | 2.6V | 08:23:00 | 00:00:00 | 00:00:00 | |
| S52SK | 2026-09-01 12:52:59 | 46.28318 | 20.92002 | 48° | 27km/h | 19741m | -21.8m/s | 0°C | 0% | 61.4hPa | 2.6V | 08:23:00 | 00:00:00 | 00:00:00 | |
| 9A1FER-10 | 2026-09-01 12:52:55 | 46.28292 | 20.91960 | 48° | 22km/h | 19874m | -21.1m/s | -54.3°C | 3.9% | 60.1hPa | 2.6V | 00:00:00 | 02:03:32 | 00:00:00 | |
| S52SK | 2026-09-01 12:52:54 | 46.28292 | 20.91960 | 48° | 26km/h | 19874m | -21.1m/s | 0°C | 0% | 60.2hPa | 2.7V | 08:23:00 | 00:00:00 | 00:00:00 | |
| 9A1FER-10 | 2026-09-01 12:52:39 | 46.28249 | 20.91856 | 26° | 24km/h | 20200m | -20.6m/s | -53.8°C | 3.7% | 57.1hPa | 2.7V | 00:00:00 | 02:03:17 | 00:00:00 | |
| PETON7-10 | 2026-09-01 12:52:34 | 46.28226 | 20.91845 | 17° | 27km/h | 20305m | -22.1m/s | 0°C | 0% | 0hPa | 2.7V | 00:00:00 | 00:00:00 | 00:00:00 | |
| S52SK | 2026-09-01 12:52:31 | 46.28216 | 20.91840 | 17° | 22km/h | 20353m | -23.3m/s | 0°C | 0% | 55.9hPa | 2.7V | 08:24:00 | 00:00:00 | 00:00:00 | |
| S52SK | 2026-09-01 12:52:25 | 46.28184 | 20.91810 | 43° | 29km/h | 20486m | -20.0m/s | 0°C | 0% | 0hPa | 2.7V | 08:24:00 | 00:00:00 | 00:00:00 | |
| 9A1FER-10 | 2026-09-01 12:52:24 | 46.28173 | 20.91793 | 52° | 26km/h | 20528m | -20.6m/s | -54.2°C | 3.7% | 54.3hPa | 2.7V | 00:00:00 | 02:03:02 | 00:00:00 | |
| PETON7-10 | 2026-09-01 12:52:19 | 46.28156 | 20.91744 | 71° | 26km/h | 20635m | -21.4m/s | 0°C | 0% | 0hPa | 2.7V | 00:00:00 | 00:00:00 | 00:00:00 | |
| S52SK | 2026-09-01 12:52:18 | 46.28153 | 20.91734 | 71° | 24km/h | 20657m | -21.7m/s | 0°C | 0% | 0hPa | 2.7V | 08:24:00 | 00:00:00 | 00:00:00 | |
| S52SK | 2026-09-01 12:52:11 | 46.28140 | 20.91690 | 61° | 24km/h | 20785m | -22.7m/s | 0°C | 0% | 0hPa | 2.7V | 08:24:00 | 00:00:00 | 00:00:00 | |
| 9A1FER-10 | 2026-09-01 12:52:09 | 46.28130 | 20.91666 | 59° | 27km/h | 20851m | -21.7m/s | -54.7°C | 4.0% | 51.6hPa | 2.7V | 08:24:00 | 02:02:47 | 00:00:00 | |
| S52SK | 2026-09-01 12:52:06 | 46.28117 | 20.91627 | 68° | 31km/h | 20937m | -20.7m/s | 0°C | 0% | 0hPa | 2.6V | 08:24:00 | 00:00:00 | 00:00:00 | |
| PETON7-10 | 2026-09-01 12:52:05 | 46.28115 | 20.91616 | 72° | 33km/h | 20958m | -22.8m/s | 0°C | 0% | 0hPa | 2.6V | 00:00:00 | 02:02:42 | 00:00:00 | |
| 9A1FER-10 | 2026-09-01 12:51:54 | 46.28097 | 20.91531 | 82° | 24km/h | 21191m | -24.2m/s | -54.7°C | 4.0% | 48.9hPa | 2.6V | 00:00:00 | 02:02:32 | 00:00:00 | |
| S52SK | 2026-09-01 12:51:49 | 46.28097 | 20.91500 | 100° | 20km/h | 21286m | -23.8m/s | 0°C | 0% | 0hPa | 2.6V | 08:24:00 | 00:00:00 | 00:00:00 | |
| PETON7-10 | 2026-09-01 12:51:48 | 46.28099 | 20.91484 | 105° | 26km/h | 21335m | -23.1m/s | 0°C | 0% | 0hPa | 2.6V | 00:00:00 | 00:00:00 | 00:00:00 | |
| S52SK | 2026-09-01 12:51:43 | 46.28107 | 20.91451 | 111° | 26km/h | 21427m | -22.6m/s | 0°C | 0% | 0hPa | 2.6V | 00:00:00 | 00:00:00 | 00:00:00 | |
| S52SK | 2026-09-01 12:51:39 | 46.28118 | 20.91413 | 111° | 20km/h | 21542m | -23.4m/s | 0°C | 0% | 0hPa | 2.6V | 00:00:00 | 00:00:00 | 00:00:00 | |
| S52SK | 2026-09-01 12:51:33 | 46.28122 | 20.91384 | 82° | 9km/h | 21685m | -26.8m/s | 0°C | 0% | 0hPa | 2.6V | 00:00:00 | 00:00:00 | 00:00:00 | |
| 9A1FER-10 | 2026-09-01 12:51:24 | 46.28116 | 20.91381 | 290° | 11km/h | 21918m | -25.5m/s | -53.1°C | 3.6% | 43.7hPa | 2.6V | 00:00:00 | 02:02:02 | 00:00:00 | |
| 9A1FER-10 | 2026-09-01 12:51:09 | 46.28080 | 20.91408 | 42° | 7km/h | 22313m | -26.9m/s | -53.8°C | 4.0% | 41.1hPa | 2.6V | 00:00:00 | 02:01:47 | 00:00:00 | |
| 9A1FER-10 | 2026-09-01 12:50:54 | 46.28084 | 20.91431 | 325° | 24km/h | 22694m | -24.4m/s | -52.9°C | 3.7% | 38.7hPa | 2.6V | 00:00:00 | 02:01:32 | 00:00:00 | |
| 9A1FER-10 | 2026-09-01 12:50:39 | 46.27997 | 20.91432 | 45° | 9km/h | 23078m | -25.2m/s | -52.8°C | 3.7% | 36.4hPa | 2.6V | 00:00:00 | 02:01:17 | 00:00:00 | |
| 9A1FER-10 | 2026-09-01 12:50:24 | 46.27997 | 20.91433 | 305° | 7km/h | 23488m | -28.2m/s | -52.7°C | 3.7% | 34.2hPa | 2.7V | 00:00:00 | 02:01:02 | 00:00:00 | |
| 9A1FER-10 | 2026-09-01 12:50:09 | 46.27978 | 20.91443 | 96° | 11km/h | 23934m | -30.1m/s | -52.5°C | 3.8% | 31.9hPa | 2.7V | 00:00:00 | 02:00:47 | 00:00:00 | |
| LZ4TU-5 | 2026-09-01 12:50:07 | 46.27978 | 20.91437 | 95° | 11km/h | 23994m | -27.6m/s | -52.3°C | 1.0% | 31.7hPa | 2.7V | 08:26:00 | 00:00:00 | 00:00:00 | |
| 9A1FER-10 | 2026-09-01 12:49:54 | 46.27996 | 20.91401 | 180° | 9km/h | 24364m | -29.1m/s | -51.3°C | 3.5% | 29.8hPa | 2.7V | 08:26:00 | 02:00:32 | 00:00:00 | |
| 9A1FER-10 | 2026-09-01 12:49:39 | 46.27973 | 20.91369 | 80° | 9km/h | 24816m | -28.4m/s | -51.6°C | 3.6% | 27.8hPa | 2.7V | 00:00:00 | 02:00:17 | 00:00:00 | |
| 9A1FER-10 | 2026-09-01 12:49:24 | 46.27988 | 20.91376 | 277° | 9km/h | 25236m | -28.4m/s | -50.7°C | 3.6% | 26.1hPa | 2.7V | 00:00:00 | 02:00:02 | 00:00:00 | |
| 9A1FER-10 | 2026-09-01 12:49:09 | 46.27961 | 20.91391 | 268° | 16km/h | 25703m | -27.9m/s | -49.0°C | 3.1% | 24.2hPa | 2.7V | 00:00:00 | 01:59:47 | 00:00:00 | |
| 9A1FER-10 | 2026-09-01 12:48:54 | 46.27919 | 20.91427 | 38° | 15km/h | 26127m | -27.3m/s | -48.1°C | 3.1% | 22.7hPa | 2.7V | 00:00:00 | 01:59:32 | 00:00:00 | |
| 9A1FER-10 | 2026-09-01 12:48:39 | 46.27894 | 20.91364 | 212° | 9km/h | 26538m | -27.7m/s | -47.7°C | 2.9% | 21.3hPa | 2.7V | 00:00:00 | 01:59:17 | 00:00:00 | |
| 9A1FER-10 | 2026-09-01 12:48:24 | 46.27862 | 20.91380 | 8° | 15km/h | 26975m | -27.7m/s | -48.7°C | 3.2% | 19.9hPa | 2.7V | 00:00:00 | 01:59:02 | 00:00:00 | |
| 9A1FER-10 | 2026-09-01 12:48:09 | 46.27853 | 20.91309 | 111° | 22km/h | 27417m | -31.7m/s | -47.7°C | 3.1% | 18.6hPa | 2.6V | 00:00:00 | 01:58:47 | 00:00:00 | |
| LZ4TU-5 | 2026-09-01 12:47:55 | 46.27895 | 20.91264 | 157° | 5km/h | 27870m | -35.1m/s | -47.0°C | 0% | 17.4hPa | 2.6V | 00:00:00 | 00:00:00 | 00:00:00 | |
| 9A1FER-10 | 2026-09-01 12:46:04 | 46.27836 | 20.90903 | 4° | 24km/h | 31560m | -33.9m/s | -37.3°C | 1.8% | 9.9hPa | 2.6V | 00:00:00 | 01:56:42 | 08:30:00 | |
| LZ4TU-5 | 2026-09-01 12:45:49 | 46.27747 | 20.90868 | 12° | 35km/h | 31957m | -20.2m/s | -38.5°C | 0.4% | 9.4hPa | 2.6V | 00:00:00 | 00:00:00 | 00:00:00 | |
| 9A1FER-10 | 2026-09-01 12:45:34 | 46.27652 | 20.90774 | 35° | 31km/h | 32200m | 6.5m/s | -39.6°C | 2.1% | 9.0hPa | 2.6V | 00:00:00 | 01:56:12 | 00:00:00 | |
| 9A1FER-10 | 2026-09-01 12:45:19 | 46.27547 | 20.90701 | 41° | 26km/h | 32097m | 7.3m/s | -39.0°C | 2.1% | 9.1hPa | 2.6V | 00:00:00 | 01:55:57 | 00:00:00 | |
| LZ4TU-5 | 2026-09-01 12:42:58 | 46.27166 | 20.90187 | 67° | 15km/h | 31105m | 5.8m/s | -39.4°C | 0.5% | 10.6hPa | 2.6V | 00:00:00 | 00:00:00 | 00:00:00 | |
| 9A1FER-10 | 2026-09-01 12:42:56 | 46.27158 | 20.90168 | 57° | 35km/h | 31084m | 6.2m/s | -39.8°C | 2.1% | 10.6hPa | 2.6V | 00:00:00 | 01:53:34 | 00:00:00 | |
| 9A1FER-10 | 2026-09-01 12:42:38 | 46.27080 | 20.89995 | 54° | 27km/h | 30959m | 7.4m/s | -40.0°C | 2.2% | 10.8hPa | 2.6V | 00:00:00 | 01:53:16 | 00:00:00 | |
| OM5KV | 2026-09-01 12:40:47 | 46.26714 | 20.89677 | 136° | 18km/h | 30208m | 5.8m/s | 0°C | 0% | 0hPa | 2.6V | 00:00:00 | 00:00:00 | 00:00:00 | |
| LZ4TU-5 | 2026-09-01 12:40:44 | 46.26722 | 20.89664 | 139° | 15km/h | 30186m | 6.2m/s | -41.8°C | 0.5% | 12.2hPa | 2.6V | 00:00:00 | 00:00:00 | 00:00:00 | |
| LZ4TU-5 | 2026-09-01 12:38:24 | 46.26730 | 20.89150 | 120° | 20km/h | 29213m | 6.0m/s | -43.2°C | 0.6% | 14.1hPa | 2.6V | 00:00:00 | 00:00:00 | 00:00:00 | |
| 9A1FER-10 | 2026-09-01 12:38:23 | 46.26735 | 20.89137 | 127° | 18km/h | 29198m | 7.0m/s | -43.2°C | 2.4% | 14.1hPa | 2.6V | 00:00:00 | 01:49:01 | 00:00:00 | |
| 9A1FER-10 | 2026-09-01 12:38:06 | 46.26781 | 20.89073 | 97° | 18km/h | 29084m | 6.0m/s | -43.3°C | 2.4% | 14.3hPa | 2.6V | 00:00:00 | 01:48:44 | 00:00:00 | |
| 9A1FER-10 | 2026-09-01 12:37:50 | 46.26795 | 20.88978 | 100° | 22km/h | 28980m | 6.0m/s | -43.4°C | 2.4% | 14.6hPa | 2.6V | 00:00:00 | 01:48:28 | 00:00:00 | |
| 9A1FER-10 | 2026-09-01 12:37:33 | 46.26804 | 20.88848 | 142° | 13km/h | 28865m | 6.1m/s | -43.6°C | 2.6% | 14.8hPa | 2.6V | 00:00:00 | 01:48:11 | 08:30:00 | |
| 9A1FER-10 | 2026-09-01 12:37:07 | 46.26820 | 20.88711 | 66° | 18km/h | 28694m | 7.1m/s | -44.2°C | 2.5% | 15.2hPa | 2.7V | 00:00:00 | 01:47:45 | 00:00:00 | |
| LZ4TU-5 | 2026-09-01 12:36:22 | 46.26765 | 20.88580 | 14° | 22km/h | 28404m | 8.0m/s | -45.2°C | 0.7% | 16.0hPa | 2.7V | 00:00:00 | 00:00:00 | 00:00:00 | |
| 9A1FER-10 | 2026-09-01 12:36:13 | 46.26739 | 20.88610 | 3° | 5km/h | 28339m | 6.4m/s | -45.2°C | 2.7% | 16.0hPa | 2.7V | 00:00:00 | 01:46:51 | 00:00:00 | |
| 9A1FER-10 | 2026-09-01 12:35:56 | 46.26740 | 20.88615 | 215° | 18km/h | 28226m | 6.1m/s | -45.6°C | 2.8% | 16.3hPa | 2.7V | 00:00:00 | 01:46:34 | 00:00:00 | |
| LZ4TU-5 | 2026-09-01 12:34:28 | 46.26846 | 20.88457 | 109° | 15km/h | 27621m | 7.9m/s | -47.5°C | 0.8% | 18.0hPa | 2.7V | 00:00:00 | 00:00:00 | 00:00:00 | |
| LZ4TU-5 | 2026-09-01 12:34:23 | 46.26854 | 20.88437 | 137° | 16km/h | 27593m | 6.4m/s | -47.3°C | 0.7% | 18.1hPa | 2.7V | 00:00:00 | 00:00:00 | 00:00:00 | |
| 9A1FER-10 | 2026-09-01 12:32:46 | 46.26649 | 20.87945 | 14° | 16km/h | 26948m | 6.2m/s | -48.3°C | 3.1% | 19.9hPa | 2.7V | 00:00:00 | 01:43:24 | 00:00:00 | |
| 9A1FER-10 | 2026-09-01 12:32:30 | 46.26585 | 20.87963 | 334° | 16km/h | 26840m | 5.4m/s | -48.3°C | 3.1% | 20.2hPa | 2.7V | 00:00:00 | 01:43:08 | 00:00:00 | |
| LZ4TU-5 | 2026-09-01 12:32:29 | 46.26583 | 20.87965 | 327° | 13km/h | 26834m | 6.0m/s | -48.4°C | 0.8% | 20.3hPa | 2.7V | 00:00:00 | 00:00:00 | 00:00:00 | |
| 9A1FER-10 | 2026-09-01 12:32:15 | 46.26533 | 20.88022 | 322° | 13km/h | 26740m | 7.8m/s | -48.0°C | 3.1% | 20.5hPa | 2.7V | 00:00:00 | 01:42:53 | 00:00:00 | |
| 9A1FER-10 | 2026-09-01 12:32:00 | 46.26496 | 20.88065 | 312° | 5km/h | 26639m | 7.5m/s | -47.6°C | 3.1% | 20.9hPa | 2.6V | 00:00:00 | 01:42:38 | 00:00:00 | |
| 9A1FER-10 | 2026-09-01 12:31:45 | 46.26487 | 20.88075 | 182° | 5km/h | 26536m | 7.4m/s | -47.4°C | 3.0% | 21.2hPa | 2.6V | 00:00:00 | 01:42:23 | 00:00:00 | |
| 9A1FER-10 | 2026-09-01 12:31:30 | 46.26484 | 20.88056 | 16° | 13km/h | 26439m | 7.1m/s | -47.2°C | 2.9% | 21.5hPa | 2.6V | 00:00:00 | 01:42:08 | 08:30:00 | |
| 9A1FER-10 | 2026-09-01 12:31:15 | 46.26450 | 20.88007 | 46° | 24km/h | 26342m | 6.5m/s | -47.4°C | 2.9% | 21.9hPa | 2.7V | 00:00:00 | 01:41:53 | 00:00:00 | |
| 9A1FER-10 | 2026-09-01 12:31:00 | 46.26394 | 20.87906 | 38° | 22km/h | 26238m | 7.5m/s | -47.9°C | 3.0% | 22.2hPa | 2.7V | 00:00:00 | 01:41:38 | 00:00:00 | |
| 9A1FER-10 | 2026-09-01 12:30:42 | 46.26317 | 20.87839 | 16° | 20km/h | 26119m | 6.5m/s | -47.9°C | 3.0% | 22.6hPa | 2.7V | 00:00:00 | 01:41:20 | 00:00:00 | |
| LZ4TU-5 | 2026-09-01 12:30:30 | 46.26260 | 20.87837 | 5° | 29km/h | 26038m | 5.4m/s | -48.5°C | 0.8% | 22.9hPa | 2.6V | 00:00:00 | 00:00:00 | 00:00:00 | |
| 9A1FER-10 | 2026-09-01 12:30:27 | 46.26238 | 20.87839 | 344° | 18km/h | 26019m | 5.8m/s | -48.4°C | 3.1% | 23.0hPa | 2.6V | 00:00:00 | 01:41:05 | 00:00:00 | |
| 9A1FER-10 | 2026-09-01 12:30:11 | 46.26184 | 20.87906 | 289° | 13km/h | 25917m | 7.2m/s | -48.8°C | 3.2% | 23.3hPa | 2.6V | 00:00:00 | 01:40:49 | 00:00:00 | |
| 9A1FER-10 | 2026-09-01 12:29:55 | 46.26190 | 20.87980 | 234° | 5km/h | 25811m | 5.5m/s | -49.1°C | 3.2% | 23.7hPa | 2.6V | 00:00:00 | 01:40:33 | 00:00:00 | |
| 9A1FER-10 | 2026-09-01 12:29:39 | 46.26198 | 20.87998 | 10° | 11km/h | 25709m | 5.3m/s | -48.9°C | 3.1% | 24.1hPa | 2.7V | 00:00:00 | 01:40:17 | 00:00:00 | |
| 9A1FER-10 | 2026-09-01 12:29:23 | 46.26184 | 20.87979 | 19° | 11km/h | 25606m | 6.1m/s | -49.8°C | 3.2% | 24.5hPa | 2.7V | 00:00:00 | 01:40:01 | 00:00:00 | |
| 9A1FER-10 | 2026-09-01 12:29:09 | 46.26156 | 20.87957 | 5° | 5km/h | 25512m | 5.0m/s | -50.3°C | 3.3% | 24.8hPa | 2.7V | 00:00:00 | 01:39:46 | 08:30:00 | |
| 9A1FER-10 | 2026-09-01 12:28:53 | 46.26147 | 20.87982 | 263° | 11km/h | 25418m | 5.1m/s | -50.4°C | 3.3% | 25.2hPa | 2.6V | 00:00:00 | 01:39:31 | 00:00:00 | |
| LZ4TU-5 | 2026-09-01 12:28:30 | 46.26170 | 20.88090 | 222° | 13km/h | 25281m | 5.6m/s | -51.2°C | 0.9% | 25.8hPa | 2.6V | 00:00:00 | 00:00:00 | 00:00:00 | |
| LZ4TU-5 | 2026-09-01 12:26:34 | 46.26110 | 20.88042 | 0° | 0km/h | 24532m | 5.0m/s | -51.1°C | 0.9% | 29.0hPa | 2.6V | 00:00:00 | 00:00:00 | 00:00:00 | |
| LZ4TU-5 | 2026-09-01 12:24:36 | 46.26105 | 20.87938 | 24° | 11km/h | 23801m | 4.8m/s | -52.2°C | 1.0% | 32.4hPa | 2.6V | 00:00:00 | 00:00:00 | 00:00:00 | |
| 9A1FER-10 | 2026-09-01 12:24:30 | 46.26092 | 20.87949 | 277° | 11km/h | 23757m | 7.7m/s | -52.1°C | 3.6% | 32.6hPa | 2.6V | 00:00:00 | 01:35:08 | 00:00:00 | |
| 9A1FER-10 | 2026-09-01 12:24:14 | 46.26059 | 20.87989 | 319° | 15km/h | 23657m | 6.3m/s | -52.3°C | 3.6% | 33.1hPa | 2.6V | 00:00:00 | 01:34:52 | 00:00:00 | |
| 9A1FER-10 | 2026-09-01 12:23:59 | 46.26013 | 20.88014 | 303° | 9km/h | 23563m | 7.0m/s | -52.7°C | 3.7% | 33.6hPa | 2.7V | 00:00:00 | 01:34:37 | 00:00:00 | |
| 9A1FER-10 | 2026-09-01 12:23:44 | 46.26000 | 20.88060 | 257° | 11km/h | 23471m | 6.9m/s | -52.9°C | 3.8% | 34.1hPa | 2.7V | 00:00:00 | 01:34:22 | 00:00:00 | |
| OM5KV | 2026-09-01 12:23:31 | 46.26006 | 20.88101 | 165° | 9km/h | 23399m | 6.6m/s | -52.8°C | 1.0% | 34.5hPa | 2.7V | 00:00:00 | 00:00:00 | 00:00:00 | |
| OM5KV | 2026-09-01 12:23:30 | 46.26011 | 20.88098 | 157° | 13km/h | 23388m | 6.5m/s | -52.8°C | 1.0% | 34.6hPa | 2.7V | 00:00:00 | 00:00:00 | 00:00:00 | |
| 9A1FER-10 | 2026-09-01 12:23:29 | 46.26014 | 20.88097 | 156° | 7km/h | 23382m | 5.2m/s | -52.8°C | 3.7% | 34.6hPa | 2.7V | 00:00:00 | 01:34:07 | 00:00:00 | |
| OM5KV | 2026-09-01 12:23:20 | 46.26020 | 20.88110 | 349° | 5km/h | 23337m | 5.4m/s | -52.9°C | 1.0% | 34.9hPa | 2.6V | 00:00:00 | 00:00:00 | 00:00:00 | |
| OM5KV | 2026-09-01 12:23:16 | 46.26020 | 20.88106 | 113° | 7km/h | 23312m | 6.7m/s | -53.1°C | 1.0% | 35.0hPa | 2.6V | 00:00:00 | 00:00:00 | 00:00:00 | |
| 9A1FER-10 | 2026-09-01 12:23:14 | 46.26023 | 20.88095 | 127° | 11km/h | 23294m | 6.5m/s | -53.0°C | 3.7% | 35.1hPa | 2.6V | 00:00:00 | 01:33:52 | 00:00:00 | |
| OM5KV | 2026-09-01 12:23:11 | 46.26028 | 20.88088 | 144° | 11km/h | 23282m | 4.3m/s | -53.0°C | 1.0% | 35.2hPa | 2.6V | 00:00:00 | 00:00:00 | 00:00:00 | |
| 9A1FER-10 | 2026-09-01 12:22:57 | 46.26012 | 20.88068 | 13° | 20km/h | 23194m | 7.1m/s | -53.1°C | 3.8% | 35.6hPa | 2.6V | 00:00:00 | 01:33:35 | 00:00:00 | |
| OM5KV | 2026-09-01 12:22:55 | 46.26006 | 20.88066 | 7° | 18km/h | 23182m | 5.7m/s | -53.1°C | 1.1% | 35.7hPa | 2.6V | 00:00:00 | 00:00:00 | 00:00:00 | |
| OM5KV | 2026-09-01 12:22:52 | 46.25995 | 20.88065 | 6° | 24km/h | 23169m | 5.5m/s | -53.2°C | 1.1% | 35.8hPa | 2.6V | 00:00:00 | 00:00:00 | 00:00:00 | |
| OM5KV | 2026-09-01 12:22:47 | 46.25969 | 20.88041 | 53° | 22km/h | 23137m | 6.8m/s | -53.5°C | 1.0% | 36.0hPa | 2.6V | 00:00:00 | 00:00:00 | 00:00:00 | |
| OM5KV | 2026-09-01 12:22:43 | 46.25955 | 20.88017 | 29° | 13km/h | 23106m | 7.3m/s | -53.6°C | 1.1% | 36.2hPa | 2.6V | 00:00:00 | 00:00:00 | 00:00:00 | |
| 9A1FER-10 | 2026-09-01 12:22:42 | 46.25952 | 20.88016 | 360° | 22km/h | 23099m | 6.9m/s | -53.4°C | 3.9% | 36.1hPa | 2.6V | 00:00:00 | 01:33:20 | 08:30:00 | |
| LZ4TU-5 | 2026-09-01 12:22:39 | 46.25938 | 20.88018 | 360° | 24km/h | 23080m | 6.4m/s | -53.4°C | 1.1% | 36.3hPa | 2.7V | 00:00:00 | 00:00:00 | 00:00:00 | |
| OM5KV | 2026-09-01 12:22:37 | 46.25932 | 20.88018 | 1° | 27km/h | 23074m | 4.8m/s | -53.4°C | 1.1% | 36.4hPa | 2.7V | 00:00:00 | 00:00:00 | 00:00:00 | |
| OM5KV | 2026-09-01 12:22:36 | 46.25925 | 20.88018 | 359° | 27km/h | 23068m | 7.4m/s | -53.5°C | 0% | 0hPa | 2.7V | 00:00:00 | 00:00:00 | 00:00:00 | |
| OM5KV | 2026-09-01 12:22:33 | 46.25893 | 20.88015 | 9° | 22km/h | 23036m | 5.6m/s | -53.5°C | 1.1% | 36.6hPa | 2.7V | 00:00:00 | 00:00:00 | 00:00:00 | |
| OM5KV | 2026-09-01 12:22:30 | 46.25888 | 20.88015 | 358° | 20km/h | 23029m | 7.6m/s | -53.5°C | 0% | 0hPa | 2.7V | 00:00:00 | 00:00:00 | 00:00:00 | |
| 9A1FER-10 | 2026-09-01 12:22:27 | 46.25871 | 20.88025 | 332° | 24km/h | 23004m | 5.7m/s | -53.5°C | 3.9% | 36.7hPa | 2.7V | 00:00:00 | 01:33:05 | 00:00:00 | |
| OM5KV | 2026-09-01 12:22:26 | 46.25871 | 20.88025 | 333° | 20km/h | 23004m | 5.7m/s | -53.5°C | 1.1% | 36.7hPa | 2.7V | 00:00:00 | 00:00:00 | 00:00:00 | |
| OM5KV | 2026-09-01 12:22:21 | 46.25833 | 20.88055 | 340° | 27km/h | 22965m | 5.8m/s | -53.5°C | 1.1% | 37.0hPa | 2.7V | 00:00:00 | 00:00:00 | 00:00:00 | |
| OM5KV | 2026-09-01 12:22:19 | 46.25827 | 20.88058 | 336° | 26km/h | 22958m | 7.4m/s | -53.3°C | 0% | 0hPa | 2.7V | 00:00:00 | 00:00:00 | 00:00:00 | |
| OM5KV | 2026-09-01 12:22:15 | 46.25808 | 20.88076 | 328° | 16km/h | 22932m | 6.8m/s | -53.4°C | 0% | 37.2hPa | 2.7V | 00:00:00 | 00:00:00 | 00:00:00 | |
| OM5KV | 2026-09-01 12:22:13 | 46.25801 | 20.88084 | 314° | 20km/h | 22919m | 8.1m/s | -53.2°C | 0% | 0hPa | 2.7V | 00:00:00 | 00:00:00 | 00:00:00 | |
| 9A1FER-10 | 2026-09-01 12:22:12 | 46.25794 | 20.88097 | 308° | 16km/h | 22906m | 6.7m/s | -53.2°C | 3.9% | 37.3hPa | 2.7V | 00:00:00 | 01:32:50 | 00:00:00 | |
| OM5KV | 2026-09-01 12:22:09 | 46.25786 | 20.88110 | 318° | 24km/h | 22892m | 6.2m/s | -53.3°C | 0% | 37.4hPa | 2.7V | 00:00:00 | 00:00:00 | 00:00:00 | |
| OM5KV | 2026-09-01 12:22:08 | 46.25777 | 20.88122 | 321° | 27km/h | 22878m | 7.0m/s | 0°C | 0% | 0hPa | 2.7V | 00:00:00 | 00:00:00 | 00:00:00 | |
| OM5KV | 2026-09-01 12:22:02 | 46.25757 | 20.88139 | 336° | 5km/h | 22846m | 6.0m/s | 0°C | 0% | 0hPa | 2.7V | 00:00:00 | 00:00:00 | 00:00:00 | |
| 9A1FER-10 | 2026-09-01 12:21:57 | 46.25755 | 20.88158 | 288° | 16km/h | 22807m | 7.5m/s | -52.9°C | 3.8% | 37.9hPa | 2.7V | 00:00:00 | 01:32:35 | 00:00:00 | |
| OM5KV | 2026-09-01 12:21:56 | 46.25755 | 20.88158 | 289° | 15km/h | 22807m | 7.5m/s | 0°C | 0% | 0hPa | 2.5V | 00:00:00 | 00:00:00 | 00:00:00 | |
| OM5KV | 2026-09-01 12:21:52 | 46.25743 | 20.88181 | 327° | 20km/h | 22782m | 6.0m/s | -52.9°C | 0% | 38.0hPa | 2.5V | 00:00:00 | 00:00:00 | 00:00:00 | |
| OM5KV | 2026-09-01 12:21:50 | 46.25735 | 20.88188 | 322° | 16km/h | 22771m | 6.4m/s | 0°C | 0% | 0hPa | 2.5V | 00:00:00 | 00:00:00 | 00:00:00 | |
| OM5KV | 2026-09-01 12:21:44 | 46.25733 | 20.88209 | 247° | 13km/h | 22734m | 7.5m/s | 0°C | 0% | 0hPa | 2.5V | 00:00:00 | 00:00:00 | 00:00:00 | |
| 9A1FER-10 | 2026-09-01 12:21:42 | 46.25736 | 20.88227 | 254° | 16km/h | 22716m | 7.3m/s | -52.8°C | 3.8% | 38.4hPa | 2.5V | 00:00:00 | 01:32:20 | 00:00:00 | |
| OM5KV | 2026-09-01 12:21:38 | 46.25740 | 20.88245 | 255° | 20km/h | 22697m | 6.8m/s | 0°C | 0% | 0hPa | 2.5V | 00:00:00 | 00:00:00 | 00:00:00 | |
| OM5KV | 2026-09-01 12:21:36 | 46.25743 | 20.88258 | 247° | 16km/h | 22684m | 7.0m/s | -52.6°C | 0% | 38.6hPa | 2.5V | 00:00:00 | 00:00:00 | 00:00:00 | |
| OM5KV | 2026-09-01 12:21:32 | 46.25753 | 20.88279 | 226° | 16km/h | 22653m | 6.2m/s | -52.7°C | 0% | 38.8hPa | 2.5V | 00:00:00 | 00:00:00 | 00:00:00 | |
| OM5KV | 2026-09-01 12:21:26 | 46.25777 | 20.88306 | 231° | 22km/h | 22617m | 5.4m/s | -52.6°C | 0% | 39.0hPa | 2.5V | 00:00:00 | 00:00:00 | 00:00:00 | |
| 9A1FER-10 | 2026-09-01 12:21:22 | 46.25788 | 20.88322 | 223° | 15km/h | 22591m | 7.5m/s | -52.7°C | 3.7% | 39.1hPa | 2.5V | 00:00:00 | 01:32:00 | 00:00:00 | |
| OM5KV | 2026-09-01 12:21:20 | 46.25793 | 20.88328 | 219° | 13km/h | 22578m | 6.4m/s | -52.7°C | 0% | 39.3hPa | 2.5V | 00:00:00 | 00:00:00 | 00:00:00 | |
| OM5KV | 2026-09-01 12:21:15 | 46.25808 | 20.88339 | 205° | 20km/h | 22548m | 4.7m/s | 0°C | 0% | 39.5hPa | 2.5V | 00:00:00 | 00:00:00 | 00:00:00 | |
| OM5KV | 2026-09-01 12:21:09 | 46.25835 | 20.88349 | 190° | 13km/h | 22510m | 7.1m/s | 0°C | 0% | 39.7hPa | 2.5V | 00:00:00 | 00:00:00 | 00:00:00 | |
| 9A1FER-10 | 2026-09-01 12:21:07 | 46.25840 | 20.88349 | 168° | 16km/h | 22497m | 5.4m/s | -52.7°C | 3.7% | 39.7hPa | 2.5V | 00:00:00 | 01:31:45 | 00:00:00 | |
| OM5KV | 2026-09-01 12:21:04 | 46.25843 | 20.88351 | 198° | 7km/h | 22478m | 6.4m/s | 0°C | 0% | 39.9hPa | 2.5V | 00:00:00 | 00:00:00 | 00:00:00 | |
| OM5KV | 2026-09-01 12:20:57 | 46.25874 | 20.88356 | 182° | 29km/h | 22443m | 6.8m/s | 0°C | 0% | 0hPa | 2.5V | 00:00:00 | 00:00:00 | 00:00:00 | |
| OM5KV | 2026-09-01 12:20:52 | 46.25896 | 20.88348 | 143° | 4km/h | 22408m | 5.4m/s | 0°C | 0% | 0hPa | 2.5V | 00:00:00 | 00:00:00 | 00:00:00 | |
| OM5KV | 2026-09-01 12:20:43 | 46.25919 | 20.88334 | 160° | 16km/h | 22361m | 5.0m/s | 0°C | 0% | 0hPa | 2.5V | 00:00:00 | 00:00:00 | 00:00:00 | |
| LZ4TU-5 | 2026-09-01 12:20:41 | 46.25925 | 20.88330 | 168° | 9km/h | 22350m | 6.2m/s | -53.3°C | 1.0% | 40.7hPa | 2.5V | 00:00:00 | 00:00:00 | 00:00:00 | |
| 9A1FER-10 | 2026-09-01 12:20:37 | 46.25928 | 20.88320 | 86° | 9km/h | 22323m | 5.0m/s | -53.2°C | 3.6% | 40.8hPa | 2.5V | 00:00:00 | 01:31:15 | 00:00:00 | |
| 9A1FER-10 | 2026-09-01 12:20:22 | 46.25908 | 20.88304 | 18° | 13km/h | 22234m | 6.5m/s | -53.7°C | 3.8% | 41.3hPa | 2.5V | 00:00:00 | 01:31:00 | 08:30:00 | |
| 9A1FER-10 | 2026-09-01 12:20:07 | 46.25864 | 20.88309 | 357° | 9km/h | 22147m | 4.8m/s | -53.8°C | 3.9% | 41.9hPa | 2.7V | 00:00:00 | 01:30:45 | 00:00:00 | |
| 9A1FER-10 | 2026-09-01 12:19:52 | 46.25834 | 20.88326 | 294° | 7km/h | 22063m | 5.8m/s | -53.8°C | 3.9% | 42.5hPa | 2.7V | 00:00:00 | 01:30:30 | 00:00:00 | |
| 9A1FER-10 | 2026-09-01 12:19:37 | 46.25847 | 20.88360 | 216° | 7km/h | 21976m | 5.9m/s | -53.4°C | 3.8% | 43.1hPa | 2.7V | 00:00:00 | 01:30:15 | 00:00:00 | |
| 9A1FER-10 | 2026-09-01 12:18:44 | 46.25868 | 20.88379 | 60° | 11km/h | 21670m | 5.2m/s | -54.3°C | 4.0% | 45.2hPa | 2.6V | 00:00:00 | 01:29:22 | 00:00:00 | |
| LZ4TU-5 | 2026-09-01 12:18:41 | 46.25868 | 20.88373 | 96° | 9km/h | 21657m | 5.8m/s | -54.4°C | 1.2% | 45.4hPa | 2.6V | 00:00:00 | 00:00:00 | 00:00:00 | |
| LZ4TU-5 | 2026-09-01 12:18:38 | 46.25871 | 20.88361 | 121° | 11km/h | 21634m | 6.6m/s | -54.3°C | 1.1% | 45.5hPa | 2.6V | 00:00:00 | 00:00:00 | 00:00:00 | |
| 9A1FER-10 | 2026-09-01 12:18:29 | 46.25889 | 20.88321 | 122° | 18km/h | 21579m | 5.6m/s | -54.2°C | 4.0% | 45.8hPa | 2.6V | 00:00:00 | 01:29:07 | 00:00:00 | |
| 9A1FER-10 | 2026-09-01 12:18:14 | 46.25922 | 20.88231 | 114° | 26km/h | 21492m | 6.5m/s | -54.2°C | 4.0% | 46.5hPa | 2.6V | 00:00:00 | 01:28:52 | 00:00:00 | |
| 9A1FER-10 | 2026-09-01 12:17:59 | 46.25937 | 20.88092 | 117° | 26km/h | 21402m | 4.2m/s | -53.8°C | 4.0% | 47.1hPa | 2.6V | 00:00:00 | 01:28:37 | 00:00:00 | |
| 9A1FER-10 | 2026-09-01 12:17:44 | 46.25946 | 20.87953 | 104° | 22km/h | 21314m | 6.5m/s | -53.6°C | 3.8% | 47.8hPa | 2.6V | 00:00:00 | 01:28:22 | 00:00:00 | |
| 9A1FER-10 | 2026-09-01 12:17:29 | 46.25946 | 20.87840 | 82° | 22km/h | 21225m | 4.8m/s | -53.9°C | 3.9% | 48.5hPa | 2.6V | 00:00:00 | 01:28:07 | 08:30:00 | |
| 9A1FER-10 | 2026-09-01 12:16:56 | 46.25883 | 20.87614 | 65° | 31km/h | 21030m | 5.0m/s | -53.9°C | 4.0% | 49.9hPa | 2.7V | 00:00:00 | 01:27:34 | 00:00:00 | |
| LZ4TU-5 | 2026-09-01 12:16:43 | 46.25856 | 20.87502 | 68° | 26km/h | 20962m | 5.5m/s | -53.8°C | 1.1% | 50.5hPa | 2.7V | 00:00:00 | 00:00:00 | 00:00:00 | |
| 9A1FER-10 | 2026-09-01 12:16:33 | 46.25821 | 20.87395 | 52° | 31km/h | 20901m | 6.1m/s | -53.6°C | 3.8% | 51.0hPa | 2.7V | 00:00:00 | 01:27:11 | 00:00:00 | |
| 9A1FER-10 | 2026-09-01 12:16:18 | 46.25750 | 20.87264 | 49° | 27km/h | 20814m | 5.7m/s | -53.8°C | 3.9% | 51.7hPa | 2.7V | 00:00:00 | 01:26:56 | 00:00:00 | |
| 9A1FER-10 | 2026-09-01 12:16:04 | 46.25683 | 20.87157 | 38° | 20km/h | 20729m | 5.7m/s | -53.8°C | 3.9% | 52.4hPa | 2.7V | 00:00:00 | 01:26:41 | 00:00:00 | |
| 9A1FER-10 | 2026-09-01 12:15:48 | 46.25640 | 20.87064 | 47° | 24km/h | 20641m | 5.3m/s | -53.8°C | 3.8% | 53.1hPa | 2.7V | 00:00:00 | 01:26:26 | 00:00:00 | |
| LZ4TU-5 | 2026-09-01 12:14:47 | 46.25336 | 20.86739 | 9° | 24km/h | 20301m | 5.8m/s | -54.3°C | 1.1% | 56.0hPa | 2.7V | 00:00:00 | 00:00:00 | 00:00:00 | |
| 9A1FER-10 | 2026-09-01 12:13:14 | 46.24834 | 20.86187 | 33° | 29km/h | 19771m | 4.5m/s | -55.3°C | 4.2% | 60.8hPa | 2.7V | 00:00:00 | 01:23:52 | 00:00:00 | |
| 9A1FER-10 | 2026-09-01 12:12:58 | 46.24720 | 20.86120 | 15° | 24km/h | 19681m | 6.9m/s | -55.1°C | 3.9% | 61.7hPa | 2.7V | 00:00:00 | 01:23:36 | 00:00:00 | |
| LZ4TU-5 | 2026-09-01 12:12:46 | 46.24651 | 20.86103 | 20° | 15km/h | 19614m | 4.3m/s | 0°C | 0% | 62.4hPa | 2.7V | 00:00:00 | 00:00:00 | 00:00:00 | |
| 9A1FER-10 | 2026-09-01 12:12:43 | 46.24638 | 20.86098 | 17° | 20km/h | 19598m | 4.6m/s | -55.5°C | 4.0% | 62.5hPa | 2.7V | 00:00:00 | 01:23:21 | 00:00:00 | |
| 9A1FER-10 | 2026-09-01 12:12:28 | 46.24569 | 20.86049 | 26° | 22km/h | 19512m | 6.1m/s | -55.8°C | 4.1% | 63.4hPa | 2.7V | 00:00:00 | 01:23:06 | 08:30:00 | |
| 9A1FER-10 | 2026-09-01 12:12:13 | 46.24497 | 20.86001 | 28° | 27km/h | 19427m | 6.2m/s | -56.5°C | 4.4% | 64.2hPa | 2.7V | 00:00:00 | 01:22:51 | 00:00:00 | |
| 9A1FER-10 | 2026-09-01 12:11:58 | 46.24400 | 20.85940 | 15° | 22km/h | 19343m | 7.0m/s | -56.1°C | 4.4% | 65.1hPa | 2.7V | 00:00:00 | 01:22:36 | 00:00:00 | |
| 9A1FER-10 | 2026-09-01 12:11:43 | 46.24317 | 20.85920 | 18° | 20km/h | 19260m | 6.0m/s | -55.5°C | 4.2% | 66.0hPa | 2.7V | 00:00:00 | 01:22:21 | 00:00:00 | |
| 9A1FER-10 | 2026-09-01 12:11:28 | 46.24240 | 20.85923 | 336° | 15km/h | 19174m | 6.1m/s | -55.0°C | 3.9% | 66.9hPa | 2.6V | 00:00:00 | 01:22:06 | 00:00:00 | |
| 9A1FER-10 | 2026-09-01 12:11:13 | 46.24193 | 20.85927 | 55° | 11km/h | 19089m | 4.5m/s | -55.7°C | 4.3% | 67.7hPa | 2.6V | 00:00:00 | 01:21:51 | 00:00:00 | |
| 9A1FER-10 | 2026-09-01 12:10:58 | 46.24165 | 20.85896 | 77° | 13km/h | 19004m | 5.1m/s | -55.3°C | 4.1% | 68.7hPa | 2.6V | 00:00:00 | 01:21:36 | 00:00:00 | |
| LZ4TU-5 | 2026-09-01 12:10:43 | 46.24165 | 20.85851 | 131° | 9km/h | 18918m | 4.3m/s | 0°C | 0% | 69.6hPa | 2.6V | 00:00:00 | 00:00:00 | 00:00:00 | |
| 9A1FER-10 | 2026-09-01 12:10:38 | 46.24172 | 20.85830 | 101° | 16km/h | 18894m | 6.1m/s | -55.4°C | 4.1% | 69.8hPa | 2.6V | 00:00:00 | 01:21:16 | 00:00:00 | |
| LZ4TU-5 | 2026-09-01 12:10:36 | 46.24173 | 20.85823 | 98° | 20km/h | 18888m | 4.5m/s | 0°C | 0% | 70.0hPa | 2.6V | 00:00:00 | 00:00:00 | 00:00:00 | |
| 9A1FER-10 | 2026-09-01 12:10:23 | 46.24186 | 20.85745 | 88° | 20km/h | 18814m | 6.4m/s | -55.7°C | 4.0% | 70.7hPa | 2.6V | 00:00:00 | 01:21:01 | 00:00:00 | |
| 9A1FER-10 | 2026-09-01 12:10:08 | 46.24180 | 20.85641 | 103° | 24km/h | 18734m | 5.0m/s | -57.0°C | 4.4% | 71.6hPa | 2.6V | 00:00:00 | 01:20:46 | 08:30:00 | |
| 9A1FER-10 | 2026-09-01 12:09:54 | 46.24204 | 20.85513 | 111° | 24km/h | 18652m | 3.5m/s | -57.2°C | 4.6% | 72.6hPa | 2.7V | 00:00:00 | 01:20:31 | 00:00:00 | |
| 9A1FER-10 | 2026-09-01 12:09:38 | 46.24222 | 20.85383 | 97° | 24km/h | 18574m | 5.9m/s | -57.0°C | 4.5% | 73.5hPa | 2.7V | 00:00:00 | 01:20:16 | 00:00:00 | |
| 9A1FER-10 | 2026-09-01 12:09:23 | 46.24229 | 20.85256 | 90° | 20km/h | 18494m | 5.7m/s | -56.5°C | 4.4% | 74.4hPa | 2.7V | 00:00:00 | 01:20:01 | 00:00:00 | |
| 9A1FER-10 | 2026-09-01 12:09:08 | 46.24228 | 20.85151 | 61° | 20km/h | 18414m | 3.8m/s | -56.1°C | 4.3% | 75.4hPa | 2.6V | 00:00:00 | 01:19:46 | 00:00:00 | |
| 9A1FER-10 | 2026-09-01 12:08:53 | 46.24213 | 20.85047 | 68° | 18km/h | 18339m | 4.7m/s | -55.9°C | 4.4% | 76.2hPa | 2.6V | 00:00:00 | 01:19:31 | 00:00:00 | |
| LZ4TU-5 | 2026-09-01 12:08:46 | 46.24210 | 20.85009 | 100° | 20km/h | 18308m | 5.5m/s | 0°C | 0% | 76.7hPa | 2.6V | 00:00:00 | 00:00:00 | 00:00:00 | |
| LZ4TU-5 | 2026-09-01 12:08:41 | 46.24211 | 20.84975 | 67° | 18km/h | 18281m | 6.4m/s | 0°C | 0% | 77.0hPa | 2.6V | 00:00:00 | 00:00:00 | 00:00:00 | |
| 9A1FER-10 | 2026-09-01 12:08:38 | 46.24199 | 20.84956 | 46° | 13km/h | 18261m | 4.7m/s | -55.2°C | 4.2% | 77.2hPa | 2.6V | 00:00:00 | 01:19:16 | 00:00:00 | |
| 9A1FER-10 | 2026-09-01 12:07:54 | 46.24196 | 20.84721 | 104° | 31km/h | 18025m | 5.0m/s | -54.5°C | 3.9% | 80.1hPa | 2.6V | 00:00:00 | 01:18:32 | 00:00:00 | |
| 9A1FER-10 | 2026-09-01 12:07:15 | 46.24201 | 20.84296 | 88° | 38km/h | 17822m | 4.3m/s | -55.0°C | 4.0% | 82.7hPa | 2.6V | 00:00:00 | 01:17:53 | 00:00:00 | |
| 9A1FER-10 | 2026-09-01 12:07:00 | 46.24182 | 20.84081 | 71° | 44km/h | 17745m | 5.1m/s | -55.4°C | 4.2% | 83.7hPa | 2.6V | 00:00:00 | 01:17:38 | 08:30:00 | |
| LZ4TU-5 | 2026-09-01 12:06:47 | 46.24142 | 20.83901 | 71° | 44km/h | 17682m | 4.9m/s | 0°C | 0% | 84.6hPa | 0V | 00:00:00 | 00:00:00 | 00:00:00 | |
| 9A1FER-10 | 2026-09-01 12:06:45 | 46.24127 | 20.83860 | 57° | 35km/h | 17667m | 4.0m/s | -55.8°C | 4.3% | 84.7hPa | 0V | 00:00:00 | 01:17:23 | 00:00:00 | |
| LZ4TU-5 | 2026-09-01 12:06:42 | 46.24118 | 20.83837 | 62° | 37km/h | 17657m | 5.3m/s | 0°C | 0% | 84.9hPa | 0V | 00:00:00 | 00:00:00 | 00:00:00 | |
| 9A1FER-10 | 2026-09-01 12:06:30 | 46.24067 | 20.83687 | 61° | 37km/h | 17591m | 6.1m/s | 0°C | 0% | 0hPa | 0V | 00:00:00 | 01:17:08 | 00:00:00 | |
| 9A1FER-10 | 2026-09-01 12:06:17 | 46.24012 | 20.83509 | 69° | 35km/h | 17512m | 6.1m/s | 0°C | 0% | 0hPa | 0V | 00:00:00 | 01:16:53 | 00:00:00 | |
| 9A1FER-10 | 2026-09-01 12:06:00 | 46.23973 | 20.83332 | 77° | 37km/h | 17435m | 4.1m/s | 0°C | 0% | 0hPa | 0V | 00:00:00 | 01:16:38 | 00:00:00 | |
| 9A1FER-10 | 2026-09-01 12:05:45 | 46.23946 | 20.83138 | 82° | 38km/h | 17356m | 5.2m/s | 0°C | 0% | 0hPa | 0V | 00:00:00 | 01:16:23 | 00:00:00 | |
| 9A1FER-10 | 2026-09-01 12:05:30 | 46.23940 | 20.82929 | 94° | 47km/h | 17279m | 3.7m/s | 0°C | 0% | 0hPa | 0V | 00:00:00 | 01:16:08 | 00:00:00 | |
| LZ4TU-5 | 2026-09-01 12:04:57 | 46.23910 | 20.82387 | 78° | 53km/h | 17115m | 4.4m/s | 0°C | 0% | 92.4hPa | 0V | 00:00:00 | 00:00:00 | 00:00:00 | |
| LZ4TU-5 | 2026-09-01 12:04:52 | 46.23899 | 20.82294 | 80° | 53km/h | 17089m | 4.3m/s | 0°C | 0% | 92.8hPa | 0V | 00:00:00 | 00:00:00 | 00:00:00 | |
| 9A1FER-10 | 2026-09-01 12:01:18 | 46.23295 | 20.77948 | 90° | 73km/h | 15854m | 5.4m/s | 0°C | 0% | 0hPa | 0V | 00:00:00 | 01:11:56 | 00:00:00 | |
| LZ4TU-5 | 2026-09-01 12:01:12 | 46.23290 | 20.77815 | 88° | 73km/h | 15829m | 4.2m/s | 0°C | 0% | 113.3hPa | 0V | 00:00:00 | 00:00:00 | 00:00:00 | |
| LZ4TU-5 | 2026-09-01 12:01:07 | 46.23290 | 20.77682 | 95° | 73km/h | 15804m | 4.5m/s | 0°C | 0% | 113.8hPa | 0V | 00:00:00 | 00:00:00 | 00:00:00 | |
| 9A1FER-10 | 2026-09-01 12:01:03 | 46.23300 | 20.77542 | 97° | 78km/h | 15778m | 4.1m/s | 0°C | 0% | 0hPa | 0V | 00:00:00 | 01:11:41 | 00:00:00 | |
| LZ4TU-5 | 2026-09-01 11:59:17 | 46.23008 | 20.74595 | 84° | 77km/h | 15256m | 4.1m/s | 0°C | 0% | 124.1hPa | 0V | 00:00:00 | 00:00:00 | 00:00:00 | |
| LZ4TU-5 | 2026-09-01 11:59:12 | 46.22999 | 20.74482 | 85° | 78km/h | 15236m | 5.2m/s | 0°C | 0% | 124.5hPa | 0V | 00:00:00 | 00:00:00 | 00:00:00 | |
| LZ4TU-5 | 2026-09-01 11:57:25 | 46.22751 | 20.71172 | 89° | 88km/h | 14697m | 6.0m/s | 0°C | 0% | 135.6hPa | 0V | 00:00:00 | 00:00:00 | 00:00:00 | |
| LZ4TU-5 | 2026-09-01 11:57:21 | 46.22744 | 20.71049 | 85° | 84km/h | 14675m | 4.4m/s | 0°C | 0% | 136.0hPa | 0V | 00:00:00 | 00:00:00 | 00:00:00 | |
| LZ4TU-5 | 2026-09-01 11:55:33 | 46.22736 | 20.67570 | 95° | 108km/h | 14131m | 5.0m/s | 0°C | 0% | 148.3hPa | 0V | 00:00:00 | 00:00:00 | 00:00:00 | |
| LZ4TU-5 | 2026-09-01 11:55:27 | 46.22744 | 20.67373 | 95° | 110km/h | 14104m | 5.7m/s | 0°C | 0% | 0hPa | 0V | 00:00:00 | 00:00:00 | 00:00:00 | |
| LZ4TU-5 | 2026-09-01 11:53:43 | 46.22903 | 20.63044 | 93° | 113km/h | 13611m | 4.4m/s | 0°C | 0% | 0hPa | 0V | 00:00:00 | 00:00:00 | 00:00:00 | |
| LZ4TU-5 | 2026-09-01 11:53:40 | 46.22905 | 20.62876 | 92° | 119km/h | 13592m | 6.0m/s | 0°C | 0% | 0hPa | 0V | 00:00:00 | 00:00:00 | 00:00:00 | |
| LZ4TU-5 | 2026-09-01 11:51:57 | 46.22895 | 20.57980 | 89° | 137km/h | 13021m | 9.3m/s | 0°C | 0% | 0hPa | 0V | 00:00:00 | 00:00:00 | 00:00:00 | |
| LZ4TU-5 | 2026-09-01 11:51:52 | 46.22892 | 20.57720 | 90° | 144km/h | 12989m | 5.2m/s | 0°C | 0% | 0hPa | 0V | 00:00:00 | 00:00:00 | 00:00:00 | |
| LZ4TU-5 | 2026-09-01 11:50:10 | 46.22778 | 20.52161 | 91° | 150km/h | 12414m | 5.8m/s | 0°C | 0% | 0hPa | 0V | 00:00:00 | 00:00:00 | 00:00:00 | |
| LZ4TU-5 | 2026-09-01 11:50:05 | 46.22777 | 20.51895 | 91° | 141km/h | 12382m | 6.6m/s | 0°C | 0% | 0hPa | 0V | 00:00:00 | 00:00:00 | 00:00:00 | |
| LZ4TU-5 | 2026-09-01 11:48:20 | 46.22977 | 20.46290 | 96° | 142km/h | 11750m | 7.0m/s | 0°C | 0% | 0hPa | 0V | 00:00:00 | 00:00:00 | 00:00:00 | |
| LZ4TU-5 | 2026-09-01 11:48:15 | 46.22988 | 20.46035 | 93° | 141km/h | 11720m | 7.4m/s | 0°C | 0% | 0hPa | 0V | 00:00:00 | 00:00:00 | 00:00:00 |